sensor_id;sensor_type;location;lat;lon;timestamp;P1;durP1;ratioP1;P2;durP2;ratioP2
2750;SDS011;1383;48.362;10.908;2024-01-15T00:00:59;22.88;;;12.38;;
2750;SDS011;1383;48.362;10.908;2024-01-15T00:03:26;21.45;;;13.48;;
2750;SDS011;1383;48.362;10.908;2024-01-15T00:05:53;19.20;;;13.85;;
2750;SDS011;1383;48.362;10.908;2024-01-15T00:08:20;19.00;;;12.85;;
2750;SDS011;1383;48.362;10.908;2024-01-15T00:10:47;21.90;;;12.30;;
2750;SDS011;1383;48.362;10.908;2024-01-15T00:13:14;22.38;;;13.10;;
2750;SDS011;1383;48.362;10.908;2024-01-15T00:15:41;21.08;;;12.88;;
2750;SDS011;1383;48.362;10.908;2024-01-15T00:18:08;22.23;;;12.18;;
2750;SDS011;1383;48.362;10.908;2024-01-15T00:20:35;18.33;;;11.63;;
2750;SDS011;1383;48.362;10.908;2024-01-15T00:23:01;20.25;;;10.35;;
2750;SDS011;1383;48.362;10.908;2024-01-15T00:25:28;20.80;;;12.93;;
2750;SDS011;1383;48.362;10.908;2024-01-15T00:27:55;20.15;;;11.75;;
2750;SDS011;1383;48.362;10.908;2024-01-15T00:30:22;23.48;;;13.15;;
2750;SDS011;1383;48.362;10.908;2024-01-15T00:32:49;19.70;;;13.02;;
2750;SDS011;1383;48.362;10.908;2024-01-15T00:35:16;18.23;;;11.90;;
2750;SDS011;1383;48.362;10.908;2024-01-15T00:37:43;16.50;;;10.77;;
2750;SDS011;1383;48.362;10.908;2024-01-15T00:40:10;22.42;;;12.70;;
2750;SDS011;1383;48.362;10.908;2024-01-15T00:42:37;18.33;;;11.50;;
2750;SDS011;1383;48.362;10.908;2024-01-15T00:45:04;19.27;;;11.60;;
2750;SDS011;1383;48.362;10.908;2024-01-15T00:47:33;22.33;;;12.55;;
2750;SDS011;1383;48.362;10.908;2024-01-15T00:50:01;19.30;;;13.30;;
2750;SDS011;1383;48.362;10.908;2024-01-15T00:52:28;22.70;;;13.88;;
2750;SDS011;1383;48.362;10.908;2024-01-15T00:54:55;14.50;;;9.35;;
2750;SDS011;1383;48.362;10.908;2024-01-15T00:57:22;19.38;;;10.35;;
2750;SDS011;1383;48.362;10.908;2024-01-15T00:59:49;19.75;;;12.75;;
2750;SDS011;1383;48.362;10.908;2024-01-15T01:02:15;18.50;;;11.63;;
2750;SDS011;1383;48.362;10.908;2024-01-15T01:04:42;19.23;;;11.45;;
2750;SDS011;1383;48.362;10.908;2024-01-15T01:07:09;16.92;;;11.10;;
2750;SDS011;1383;48.362;10.908;2024-01-15T01:09:36;18.48;;;11.23;;
2750;SDS011;1383;48.362;10.908;2024-01-15T01:12:03;27.58;;;12.20;;
2750;SDS011;1383;48.362;10.908;2024-01-15T01:14:31;20.75;;;10.82;;
2750;SDS011;1383;48.362;10.908;2024-01-15T01:16:58;20.45;;;10.60;;
2750;SDS011;1383;48.362;10.908;2024-01-15T01:19:25;19.10;;;10.38;;
2750;SDS011;1383;48.362;10.908;2024-01-15T01:21:52;22.10;;;12.07;;
2750;SDS011;1383;48.362;10.908;2024-01-15T01:24:19;16.75;;;10.50;;
2750;SDS011;1383;48.362;10.908;2024-01-15T01:26:46;14.15;;;9.77;;
2750;SDS011;1383;48.362;10.908;2024-01-15T01:29:13;17.08;;;11.38;;
2750;SDS011;1383;48.362;10.908;2024-01-15T01:31:46;17.67;;;10.95;;
2750;SDS011;1383;48.362;10.908;2024-01-15T01:34:13;18.05;;;11.10;;
2750;SDS011;1383;48.362;10.908;2024-01-15T01:36:41;16.05;;;10.35;;
2750;SDS011;1383;48.362;10.908;2024-01-15T01:39:09;17.52;;;11.07;;
2750;SDS011;1383;48.362;10.908;2024-01-15T01:41:37;16.58;;;9.68;;
2750;SDS011;1383;48.362;10.908;2024-01-15T01:44:05;19.10;;;10.65;;
2750;SDS011;1383;48.362;10.908;2024-01-15T01:46:33;12.35;;;8.65;;
2750;SDS011;1383;48.362;10.908;2024-01-15T01:49:05;13.43;;;8.20;;
2750;SDS011;1383;48.362;10.908;2024-01-15T01:51:34;13.98;;;9.07;;
2750;SDS011;1383;48.362;10.908;2024-01-15T01:54:04;15.23;;;8.20;;
2750;SDS011;1383;48.362;10.908;2024-01-15T01:56:32;13.95;;;8.85;;
2750;SDS011;1383;48.362;10.908;2024-01-15T01:58:59;13.65;;;8.35;;
2750;SDS011;1383;48.362;10.908;2024-01-15T02:01:27;11.80;;;8.23;;
2750;SDS011;1383;48.362;10.908;2024-01-15T02:03:54;18.30;;;10.70;;
2750;SDS011;1383;48.362;10.908;2024-01-15T02:06:23;19.33;;;10.35;;
2750;SDS011;1383;48.362;10.908;2024-01-15T02:08:50;13.05;;;9.07;;
2750;SDS011;1383;48.362;10.908;2024-01-15T02:11:21;12.77;;;8.43;;
2750;SDS011;1383;48.362;10.908;2024-01-15T02:13:47;15.55;;;9.27;;
2750;SDS011;1383;48.362;10.908;2024-01-15T02:16:14;13.57;;;9.95;;
2750;SDS011;1383;48.362;10.908;2024-01-15T02:18:42;19.17;;;9.63;;
2750;SDS011;1383;48.362;10.908;2024-01-15T02:21:09;16.33;;;9.43;;
2750;SDS011;1383;48.362;10.908;2024-01-15T02:23:37;17.83;;;9.07;;
2750;SDS011;1383;48.362;10.908;2024-01-15T02:26:04;17.27;;;9.90;;
2750;SDS011;1383;48.362;10.908;2024-01-15T02:28:32;13.27;;;7.95;;
2750;SDS011;1383;48.362;10.908;2024-01-15T02:30:59;14.20;;;9.98;;
2750;SDS011;1383;48.362;10.908;2024-01-15T02:33:26;16.88;;;8.98;;
2750;SDS011;1383;48.362;10.908;2024-01-15T02:35:54;15.20;;;9.85;;
2750;SDS011;1383;48.362;10.908;2024-01-15T02:38:20;14.40;;;8.52;;
2750;SDS011;1383;48.362;10.908;2024-01-15T02:40:47;11.73;;;7.80;;
2750;SDS011;1383;48.362;10.908;2024-01-15T02:43:15;15.15;;;8.63;;
2750;SDS011;1383;48.362;10.908;2024-01-15T02:45:42;13.23;;;8.70;;
2750;SDS011;1383;48.362;10.908;2024-01-15T02:48:09;16.42;;;9.73;;
2750;SDS011;1383;48.362;10.908;2024-01-15T02:50:36;15.32;;;9.57;;
2750;SDS011;1383;48.362;10.908;2024-01-15T02:53:03;15.48;;;9.82;;
2750;SDS011;1383;48.362;10.908;2024-01-15T02:55:30;14.88;;;10.75;;
2750;SDS011;1383;48.362;10.908;2024-01-15T02:57:57;15.27;;;8.77;;
2750;SDS011;1383;48.362;10.908;2024-01-15T03:00:24;17.63;;;9.65;;
2750;SDS011;1383;48.362;10.908;2024-01-15T03:02:51;16.70;;;8.60;;
2750;SDS011;1383;48.362;10.908;2024-01-15T03:05:18;11.63;;;8.30;;
2750;SDS011;1383;48.362;10.908;2024-01-15T03:07:45;11.70;;;8.25;;
2750;SDS011;1383;48.362;10.908;2024-01-15T03:10:12;14.95;;;8.80;;
2750;SDS011;1383;48.362;10.908;2024-01-15T03:12:38;13.07;;;8.30;;
2750;SDS011;1383;48.362;10.908;2024-01-15T03:15:05;12.35;;;7.90;;
2750;SDS011;1383;48.362;10.908;2024-01-15T03:17:32;13.07;;;7.88;;
2750;SDS011;1383;48.362;10.908;2024-01-15T03:19:59;17.70;;;7.70;;
2750;SDS011;1383;48.362;10.908;2024-01-15T03:22:28;13.82;;;8.05;;
2750;SDS011;1383;48.362;10.908;2024-01-15T03:24:54;11.15;;;7.15;;
2750;SDS011;1383;48.362;10.908;2024-01-15T03:27:21;14.75;;;7.68;;
2750;SDS011;1383;48.362;10.908;2024-01-15T03:29:48;10.13;;;6.75;;
2750;SDS011;1383;48.362;10.908;2024-01-15T03:32:15;16.30;;;9.35;;
2750;SDS011;1383;48.362;10.908;2024-01-15T03:34:42;9.50;;;7.75;;
2750;SDS011;1383;48.362;10.908;2024-01-15T03:37:09;12.95;;;8.10;;
2750;SDS011;1383;48.362;10.908;2024-01-15T03:39:36;12.07;;;7.15;;
2750;SDS011;1383;48.362;10.908;2024-01-15T03:42:03;13.30;;;7.63;;
2750;SDS011;1383;48.362;10.908;2024-01-15T03:44:30;12.90;;;8.32;;
2750;SDS011;1383;48.362;10.908;2024-01-15T03:46:57;11.25;;;7.05;;
2750;SDS011;1383;48.362;10.908;2024-01-15T03:49:24;15.95;;;7.85;;
2750;SDS011;1383;48.362;10.908;2024-01-15T03:51:51;14.75;;;9.25;;
2750;SDS011;1383;48.362;10.908;2024-01-15T03:54:18;16.60;;;8.32;;
2750;SDS011;1383;48.362;10.908;2024-01-15T03:56:46;13.60;;;8.05;;
2750;SDS011;1383;48.362;10.908;2024-01-15T03:59:13;14.15;;;8.80;;
2750;SDS011;1383;48.362;10.908;2024-01-15T04:01:40;13.65;;;8.40;;
2750;SDS011;1383;48.362;10.908;2024-01-15T04:04:07;12.20;;;9.25;;
2750;SDS011;1383;48.362;10.908;2024-01-15T04:06:34;14.80;;;8.82;;
2750;SDS011;1383;48.362;10.908;2024-01-15T04:09:01;11.02;;;7.30;;
2750;SDS011;1383;48.362;10.908;2024-01-15T04:11:27;9.23;;;6.68;;
2750;SDS011;1383;48.362;10.908;2024-01-15T04:13:54;13.80;;;7.13;;
2750;SDS011;1383;48.362;10.908;2024-01-15T04:16:21;14.80;;;8.35;;
2750;SDS011;1383;48.362;10.908;2024-01-15T04:18:48;16.10;;;7.70;;
2750;SDS011;1383;48.362;10.908;2024-01-15T04:21:21;9.60;;;7.05;;
2750;SDS011;1383;48.362;10.908;2024-01-15T04:23:47;11.38;;;7.38;;
2750;SDS011;1383;48.362;10.908;2024-01-15T04:26:14;10.57;;;6.57;;
2750;SDS011;1383;48.362;10.908;2024-01-15T04:28:41;11.07;;;7.05;;
2750;SDS011;1383;48.362;10.908;2024-01-15T04:31:08;19.98;;;9.50;;
2750;SDS011;1383;48.362;10.908;2024-01-15T04:33:35;13.18;;;7.20;;
2750;SDS011;1383;48.362;10.908;2024-01-15T04:36:03;11.32;;;6.88;;
2750;SDS011;1383;48.362;10.908;2024-01-15T04:38:31;9.07;;;5.47;;
2750;SDS011;1383;48.362;10.908;2024-01-15T04:40:59;7.93;;;5.65;;
2750;SDS011;1383;48.362;10.908;2024-01-15T04:43:26;11.30;;;6.00;;
2750;SDS011;1383;48.362;10.908;2024-01-15T04:45:53;14.82;;;6.57;;
2750;SDS011;1383;48.362;10.908;2024-01-15T04:48:20;11.05;;;6.28;;
2750;SDS011;1383;48.362;10.908;2024-01-15T04:50:46;14.13;;;6.65;;
2750;SDS011;1383;48.362;10.908;2024-01-15T04:53:14;10.13;;;7.15;;
2750;SDS011;1383;48.362;10.908;2024-01-15T04:55:41;11.63;;;6.68;;
2750;SDS011;1383;48.362;10.908;2024-01-15T04:58:07;14.10;;;7.85;;
2750;SDS011;1383;48.362;10.908;2024-01-15T05:00:34;9.32;;;5.53;;
2750;SDS011;1383;48.362;10.908;2024-01-15T05:03:01;10.75;;;6.18;;
2750;SDS011;1383;48.362;10.908;2024-01-15T05:05:29;9.48;;;5.78;;
2750;SDS011;1383;48.362;10.908;2024-01-15T05:07:56;11.77;;;7.43;;
2750;SDS011;1383;48.362;10.908;2024-01-15T05:10:23;13.48;;;8.02;;
2750;SDS011;1383;48.362;10.908;2024-01-15T05:12:49;8.73;;;5.93;;
2750;SDS011;1383;48.362;10.908;2024-01-15T05:15:16;9.15;;;6.00;;
2750;SDS011;1383;48.362;10.908;2024-01-15T05:17:43;11.30;;;6.80;;
2750;SDS011;1383;48.362;10.908;2024-01-15T05:20:10;7.90;;;6.05;;
2750;SDS011;1383;48.362;10.908;2024-01-15T05:22:37;11.13;;;7.00;;
2750;SDS011;1383;48.362;10.908;2024-01-15T05:25:04;10.90;;;6.68;;
2750;SDS011;1383;48.362;10.908;2024-01-15T05:27:31;10.65;;;5.45;;
2750;SDS011;1383;48.362;10.908;2024-01-15T05:29:58;9.70;;;6.22;;
2750;SDS011;1383;48.362;10.908;2024-01-15T05:32:25;9.55;;;5.85;;
2750;SDS011;1383;48.362;10.908;2024-01-15T05:34:52;12.57;;;6.00;;
2750;SDS011;1383;48.362;10.908;2024-01-15T05:37:19;7.68;;;6.00;;
2750;SDS011;1383;48.362;10.908;2024-01-15T05:39:46;8.07;;;5.97;;
2750;SDS011;1383;48.362;10.908;2024-01-15T05:42:13;7.80;;;5.30;;
2750;SDS011;1383;48.362;10.908;2024-01-15T05:44:39;11.02;;;5.18;;
2750;SDS011;1383;48.362;10.908;2024-01-15T05:47:07;10.63;;;7.03;;
2750;SDS011;1383;48.362;10.908;2024-01-15T05:49:35;8.10;;;6.15;;
2750;SDS011;1383;48.362;10.908;2024-01-15T05:52:02;8.20;;;4.47;;
2750;SDS011;1383;48.362;10.908;2024-01-15T05:54:29;10.07;;;6.28;;
2750;SDS011;1383;48.362;10.908;2024-01-15T05:56:56;8.98;;;5.35;;
2750;SDS011;1383;48.362;10.908;2024-01-15T05:59:23;8.50;;;5.60;;
2750;SDS011;1383;48.362;10.908;2024-01-15T06:01:50;5.72;;;4.43;;
2750;SDS011;1383;48.362;10.908;2024-01-15T06:04:17;10.73;;;6.10;;
2750;SDS011;1383;48.362;10.908;2024-01-15T06:06:44;13.73;;;6.05;;
2750;SDS011;1383;48.362;10.908;2024-01-15T06:09:11;8.02;;;5.28;;
2750;SDS011;1383;48.362;10.908;2024-01-15T06:11:38;10.48;;;5.78;;
2750;SDS011;1383;48.362;10.908;2024-01-15T06:14:05;9.02;;;5.47;;
2750;SDS011;1383;48.362;10.908;2024-01-15T06:16:32;9.95;;;6.10;;
2750;SDS011;1383;48.362;10.908;2024-01-15T06:18:59;6.65;;;3.30;;
2750;SDS011;1383;48.362;10.908;2024-01-15T06:21:26;6.75;;;4.78;;
2750;SDS011;1383;48.362;10.908;2024-01-15T06:23:53;9.77;;;5.90;;
2750;SDS011;1383;48.362;10.908;2024-01-15T06:26:20;26.38;;;5.60;;
2750;SDS011;1383;48.362;10.908;2024-01-15T06:28:46;9.82;;;4.90;;
2750;SDS011;1383;48.362;10.908;2024-01-15T06:31:13;9.10;;;5.95;;
2750;SDS011;1383;48.362;10.908;2024-01-15T06:33:40;8.82;;;4.97;;
2750;SDS011;1383;48.362;10.908;2024-01-15T06:36:08;9.90;;;5.68;;
2750;SDS011;1383;48.362;10.908;2024-01-15T06:38:35;10.75;;;6.32;;
2750;SDS011;1383;48.362;10.908;2024-01-15T06:41:02;7.13;;;4.82;;
2750;SDS011;1383;48.362;10.908;2024-01-15T06:43:28;9.52;;;4.80;;
2750;SDS011;1383;48.362;10.908;2024-01-15T06:45:55;7.75;;;5.13;;
2750;SDS011;1383;48.362;10.908;2024-01-15T06:48:22;6.35;;;4.90;;
2750;SDS011;1383;48.362;10.908;2024-01-15T06:50:49;5.72;;;4.97;;
2750;SDS011;1383;48.362;10.908;2024-01-15T06:53:16;10.13;;;5.95;;
2750;SDS011;1383;48.362;10.908;2024-01-15T06:55:43;6.35;;;4.22;;
2750;SDS011;1383;48.362;10.908;2024-01-15T06:58:10;6.43;;;4.22;;
2750;SDS011;1383;48.362;10.908;2024-01-15T07:00:37;9.65;;;5.70;;
2750;SDS011;1383;48.362;10.908;2024-01-15T07:03:04;7.25;;;5.30;;
2750;SDS011;1383;48.362;10.908;2024-01-15T07:05:31;6.85;;;5.22;;
2750;SDS011;1383;48.362;10.908;2024-01-15T07:07:58;4.72;;;4.00;;
2750;SDS011;1383;48.362;10.908;2024-01-15T07:10:25;4.57;;;4.13;;
2750;SDS011;1383;48.362;10.908;2024-01-15T07:12:52;6.90;;;4.95;;
2750;SDS011;1383;48.362;10.908;2024-01-15T07:15:20;6.80;;;4.85;;
2750;SDS011;1383;48.362;10.908;2024-01-15T07:17:47;6.07;;;4.25;;
2750;SDS011;1383;48.362;10.908;2024-01-15T07:20:14;6.47;;;3.80;;
2750;SDS011;1383;48.362;10.908;2024-01-15T07:22:41;6.15;;;3.92;;
2750;SDS011;1383;48.362;10.908;2024-01-15T07:25:07;7.25;;;4.32;;
2750;SDS011;1383;48.362;10.908;2024-01-15T07:27:34;5.93;;;4.45;;
2750;SDS011;1383;48.362;10.908;2024-01-15T07:30:01;5.97;;;4.43;;
2750;SDS011;1383;48.362;10.908;2024-01-15T07:32:30;7.60;;;5.00;;
2750;SDS011;1383;48.362;10.908;2024-01-15T07:34:58;7.10;;;4.85;;
2750;SDS011;1383;48.362;10.908;2024-01-15T07:37:26;7.13;;;5.15;;
2750;SDS011;1383;48.362;10.908;2024-01-15T07:39:53;9.40;;;5.32;;
2750;SDS011;1383;48.362;10.908;2024-01-15T07:42:19;9.20;;;4.50;;
2750;SDS011;1383;48.362;10.908;2024-01-15T07:44:46;7.35;;;4.93;;
2750;SDS011;1383;48.362;10.908;2024-01-15T07:47:13;9.20;;;5.70;;
2750;SDS011;1383;48.362;10.908;2024-01-15T07:49:40;7.07;;;5.20;;
2750;SDS011;1383;48.362;10.908;2024-01-15T07:52:07;7.20;;;3.97;;
2750;SDS011;1383;48.362;10.908;2024-01-15T07:54:34;5.60;;;3.70;;
2750;SDS011;1383;48.362;10.908;2024-01-15T07:57:01;8.27;;;4.30;;
2750;SDS011;1383;48.362;10.908;2024-01-15T07:59:31;9.35;;;5.20;;
2750;SDS011;1383;48.362;10.908;2024-01-15T08:01:58;10.10;;;6.25;;
2750;SDS011;1383;48.362;10.908;2024-01-15T08:04:26;4.70;;;3.15;;
2750;SDS011;1383;48.362;10.908;2024-01-15T08:06:53;5.38;;;3.17;;
2750;SDS011;1383;48.362;10.908;2024-01-15T08:09:20;4.30;;;2.78;;
2750;SDS011;1383;48.362;10.908;2024-01-15T08:11:47;3.67;;;2.85;;
2750;SDS011;1383;48.362;10.908;2024-01-15T08:14:15;4.63;;;3.17;;
2750;SDS011;1383;48.362;10.908;2024-01-15T08:16:42;4.20;;;3.05;;
2750;SDS011;1383;48.362;10.908;2024-01-15T08:19:10;4.30;;;2.90;;
2750;SDS011;1383;48.362;10.908;2024-01-15T08:21:37;4.32;;;2.72;;
2750;SDS011;1383;48.362;10.908;2024-01-15T08:24:04;5.55;;;3.65;;
2750;SDS011;1383;48.362;10.908;2024-01-15T08:26:32;5.80;;;3.78;;
2750;SDS011;1383;48.362;10.908;2024-01-15T08:28:59;6.57;;;3.95;;
2750;SDS011;1383;48.362;10.908;2024-01-15T08:31:26;7.05;;;4.15;;
2750;SDS011;1383;48.362;10.908;2024-01-15T08:33:53;7.75;;;4.82;;
2750;SDS011;1383;48.362;10.908;2024-01-15T08:36:21;7.82;;;5.35;;
2750;SDS011;1383;48.362;10.908;2024-01-15T08:38:49;7.30;;;3.65;;
2750;SDS011;1383;48.362;10.908;2024-01-15T08:41:16;9.57;;;6.70;;
2750;SDS011;1383;48.362;10.908;2024-01-15T08:43:42;7.15;;;4.00;;
2750;SDS011;1383;48.362;10.908;2024-01-15T08:46:09;4.30;;;3.60;;
2750;SDS011;1383;48.362;10.908;2024-01-15T08:48:36;5.85;;;4.78;;
2750;SDS011;1383;48.362;10.908;2024-01-15T08:51:03;4.18;;;3.20;;
2750;SDS011;1383;48.362;10.908;2024-01-15T08:53:30;4.43;;;3.60;;
2750;SDS011;1383;48.362;10.908;2024-01-15T08:55:57;4.78;;;2.75;;
2750;SDS011;1383;48.362;10.908;2024-01-15T08:58:24;6.00;;;3.75;;
2750;SDS011;1383;48.362;10.908;2024-01-15T09:00:51;6.28;;;3.45;;
2750;SDS011;1383;48.362;10.908;2024-01-15T09:03:18;3.80;;;3.33;;
2750;SDS011;1383;48.362;10.908;2024-01-15T09:05:45;3.53;;;2.22;;
2750;SDS011;1383;48.362;10.908;2024-01-15T09:08:12;4.47;;;3.00;;
2750;SDS011;1383;48.362;10.908;2024-01-15T09:10:39;3.50;;;2.97;;
2750;SDS011;1383;48.362;10.908;2024-01-15T09:13:07;4.55;;;2.70;;
2750;SDS011;1383;48.362;10.908;2024-01-15T09:15:34;5.03;;;3.13;;
2750;SDS011;1383;48.362;10.908;2024-01-15T09:18:01;4.90;;;3.92;;
2750;SDS011;1383;48.362;10.908;2024-01-15T09:20:33;5.70;;;3.75;;
2750;SDS011;1383;48.362;10.908;2024-01-15T09:23:00;5.18;;;3.28;;
2750;SDS011;1383;48.362;10.908;2024-01-15T09:25:26;3.40;;;2.53;;
2750;SDS011;1383;48.362;10.908;2024-01-15T09:27:53;3.35;;;2.70;;
2750;SDS011;1383;48.362;10.908;2024-01-15T09:30:21;8.70;;;3.38;;
2750;SDS011;1383;48.362;10.908;2024-01-15T09:32:48;3.55;;;2.50;;
2750;SDS011;1383;48.362;10.908;2024-01-15T09:35:15;3.92;;;2.88;;
2750;SDS011;1383;48.362;10.908;2024-01-15T09:37:42;3.60;;;3.08;;
2750;SDS011;1383;48.362;10.908;2024-01-15T09:40:14;3.50;;;2.13;;
2750;SDS011;1383;48.362;10.908;2024-01-15T09:42:42;2.90;;;2.70;;
2750;SDS011;1383;48.362;10.908;2024-01-15T09:45:10;6.75;;;3.85;;
2750;SDS011;1383;48.362;10.908;2024-01-15T09:47:37;3.20;;;2.70;;
2750;SDS011;1383;48.362;10.908;2024-01-15T09:50:10;3.70;;;1.95;;
2750;SDS011;1383;48.362;10.908;2024-01-15T09:52:37;2.65;;;2.22;;
2750;SDS011;1383;48.362;10.908;2024-01-15T09:55:06;2.40;;;1.70;;
2750;SDS011;1383;48.362;10.908;2024-01-15T09:57:35;4.32;;;1.95;;
2750;SDS011;1383;48.362;10.908;2024-01-15T10:00:03;2.38;;;2.10;;
2750;SDS011;1383;48.362;10.908;2024-01-15T10:02:33;2.22;;;1.90;;
2750;SDS011;1383;48.362;10.908;2024-01-15T10:05:01;2.00;;;1.50;;
2750;SDS011;1383;48.362;10.908;2024-01-15T10:07:29;2.33;;;2.13;;
2750;SDS011;1383;48.362;10.908;2024-01-15T10:09:57;2.25;;;1.75;;
2750;SDS011;1383;48.362;10.908;2024-01-15T10:12:23;3.15;;;2.33;;
2750;SDS011;1383;48.362;10.908;2024-01-15T10:14:53;2.80;;;1.90;;
2750;SDS011;1383;48.362;10.908;2024-01-15T10:17:22;2.53;;;1.90;;
2750;SDS011;1383;48.362;10.908;2024-01-15T10:19:50;1.98;;;1.48;;
2750;SDS011;1383;48.362;10.908;2024-01-15T10:22:17;4.20;;;2.30;;
2750;SDS011;1383;48.362;10.908;2024-01-15T10:24:46;2.72;;;2.03;;
2750;SDS011;1383;48.362;10.908;2024-01-15T10:27:14;3.95;;;2.40;;
2750;SDS011;1383;48.362;10.908;2024-01-15T10:29:42;1.85;;;1.75;;
2750;SDS011;1383;48.362;10.908;2024-01-15T10:32:09;2.88;;;2.28;;
2750;SDS011;1383;48.362;10.908;2024-01-15T10:34:38;6.95;;;1.77;;
2750;SDS011;1383;48.362;10.908;2024-01-15T10:37:07;2.63;;;1.95;;
2750;SDS011;1383;48.362;10.908;2024-01-15T10:39:35;3.00;;;2.28;;
2750;SDS011;1383;48.362;10.908;2024-01-15T10:42:03;1.90;;;1.48;;
2750;SDS011;1383;48.362;10.908;2024-01-15T10:44:30;2.78;;;1.80;;
2750;SDS011;1383;48.362;10.908;2024-01-15T10:46:57;4.60;;;2.10;;
2750;SDS011;1383;48.362;10.908;2024-01-15T10:49:24;6.28;;;2.13;;
2750;SDS011;1383;48.362;10.908;2024-01-15T10:52:00;4.13;;;2.40;;
2750;SDS011;1383;48.362;10.908;2024-01-15T10:54:28;5.45;;;2.70;;
2750;SDS011;1383;48.362;10.908;2024-01-15T10:56:56;3.00;;;2.60;;
2750;SDS011;1383;48.362;10.908;2024-01-15T10:59:23;4.18;;;1.98;;
2750;SDS011;1383;48.362;10.908;2024-01-15T11:01:52;3.03;;;2.30;;
2750;SDS011;1383;48.362;10.908;2024-01-15T11:04:21;3.65;;;2.15;;
2750;SDS011;1383;48.362;10.908;2024-01-15T11:06:52;3.97;;;1.88;;
2750;SDS011;1383;48.362;10.908;2024-01-15T11:09:23;2.30;;;1.85;;
2750;SDS011;1383;48.362;10.908;2024-01-15T11:11:52;2.20;;;1.75;;
2750;SDS011;1383;48.362;10.908;2024-01-15T11:14:42;3.05;;;2.25;;
2750;SDS011;1383;48.362;10.908;2024-01-15T11:17:16;3.03;;;2.38;;
2750;SDS011;1383;48.362;10.908;2024-01-15T11:19:44;3.45;;;2.20;;
2750;SDS011;1383;48.362;10.908;2024-01-15T11:22:59;2.53;;;2.30;;
2750;SDS011;1383;48.362;10.908;2024-01-15T11:25:14;3.35;;;2.10;;
2750;SDS011;1383;48.362;10.908;2024-01-15T11:27:46;5.10;;;2.15;;
2750;SDS011;1383;48.362;10.908;2024-01-15T11:30:18;2.33;;;2.00;;
2750;SDS011;1383;48.362;10.908;2024-01-15T11:32:46;7.22;;;3.00;;
2750;SDS011;1383;48.362;10.908;2024-01-15T11:35:14;3.33;;;2.35;;
2750;SDS011;1383;48.362;10.908;2024-01-15T11:40:21;2.47;;;2.28;;
2750;SDS011;1383;48.362;10.908;2024-01-15T11:42:49;2.22;;;1.92;;
2750;SDS011;1383;48.362;10.908;2024-01-15T11:45:19;2.70;;;2.15;;
2750;SDS011;1383;48.362;10.908;2024-01-15T11:50:29;3.67;;;2.70;;
2750;SDS011;1383;48.362;10.908;2024-01-15T11:53:00;2.72;;;2.05;;
2750;SDS011;1383;48.362;10.908;2024-01-15T11:55:36;4.82;;;2.10;;
2750;SDS011;1383;48.362;10.908;2024-01-15T11:58:09;6.65;;;2.47;;
2750;SDS011;1383;48.362;10.908;2024-01-15T12:00:47;3.95;;;2.40;;
2750;SDS011;1383;48.362;10.908;2024-01-15T12:03:20;4.50;;;2.88;;
2750;SDS011;1383;48.362;10.908;2024-01-15T12:05:48;3.35;;;2.97;;
2750;SDS011;1383;48.362;10.908;2024-01-15T12:08:20;4.45;;;3.38;;
2750;SDS011;1383;48.362;10.908;2024-01-15T12:10:50;4.47;;;2.70;;
2750;SDS011;1383;48.362;10.908;2024-01-15T12:13:17;4.10;;;3.67;;
2750;SDS011;1383;48.362;10.908;2024-01-15T12:15:45;4.93;;;3.88;;
2750;SDS011;1383;48.362;10.908;2024-01-15T12:18:17;4.80;;;4.30;;
2750;SDS011;1383;48.362;10.908;2024-01-15T12:20:45;5.90;;;3.10;;
2750;SDS011;1383;48.362;10.908;2024-01-15T12:23:16;4.25;;;2.85;;
2750;SDS011;1383;48.362;10.908;2024-01-15T12:25:44;5.78;;;3.08;;
2750;SDS011;1383;48.362;10.908;2024-01-15T12:28:12;6.07;;;4.28;;
2750;SDS011;1383;48.362;10.908;2024-01-15T12:30:39;6.28;;;5.65;;
2750;SDS011;1383;48.362;10.908;2024-01-15T12:33:07;5.47;;;3.55;;
2750;SDS011;1383;48.362;10.908;2024-01-15T12:35:36;4.63;;;3.20;;
2750;SDS011;1383;48.362;10.908;2024-01-15T12:38:03;4.10;;;3.10;;
2750;SDS011;1383;48.362;10.908;2024-01-15T12:40:33;3.92;;;3.53;;
2750;SDS011;1383;48.362;10.908;2024-01-15T12:43:02;5.25;;;3.70;;
2750;SDS011;1383;48.362;10.908;2024-01-15T12:45:36;6.03;;;3.80;;
2750;SDS011;1383;48.362;10.908;2024-01-15T12:48:04;3.40;;;3.05;;
2750;SDS011;1383;48.362;10.908;2024-01-15T12:50:33;5.18;;;3.40;;
2750;SDS011;1383;48.362;10.908;2024-01-15T12:53:01;4.90;;;3.92;;
2750;SDS011;1383;48.362;10.908;2024-01-15T12:55:28;7.03;;;4.53;;
2750;SDS011;1383;48.362;10.908;2024-01-15T12:57:55;5.03;;;3.67;;
2750;SDS011;1383;48.362;10.908;2024-01-15T13:00:22;3.38;;;3.05;;
2750;SDS011;1383;48.362;10.908;2024-01-15T13:02:49;7.07;;;3.05;;
2750;SDS011;1383;48.362;10.908;2024-01-15T13:05:16;4.47;;;3.05;;
2750;SDS011;1383;48.362;10.908;2024-01-15T13:07:44;5.93;;;4.07;;
2750;SDS011;1383;48.362;10.908;2024-01-15T13:10:11;3.83;;;3.38;;
2750;SDS011;1383;48.362;10.908;2024-01-15T13:12:39;7.15;;;3.08;;
2750;SDS011;1383;48.362;10.908;2024-01-15T13:15:08;4.30;;;3.40;;
2750;SDS011;1383;48.362;10.908;2024-01-15T13:17:40;5.13;;;3.88;;
2750;SDS011;1383;48.362;10.908;2024-01-15T13:20:08;4.72;;;3.50;;
2750;SDS011;1383;48.362;10.908;2024-01-15T13:22:36;5.78;;;3.60;;
2750;SDS011;1383;48.362;10.908;2024-01-15T13:25:08;5.50;;;3.83;;
2750;SDS011;1383;48.362;10.908;2024-01-15T13:27:35;5.82;;;3.70;;
2750;SDS011;1383;48.362;10.908;2024-01-15T13:30:04;4.68;;;3.70;;
2750;SDS011;1383;48.362;10.908;2024-01-15T13:32:34;4.32;;;3.75;;
2750;SDS011;1383;48.362;10.908;2024-01-15T13:35:02;5.75;;;4.20;;
2750;SDS011;1383;48.362;10.908;2024-01-15T13:37:31;7.30;;;3.58;;
2750;SDS011;1383;48.362;10.908;2024-01-15T13:39:58;4.45;;;3.83;;
2750;SDS011;1383;48.362;10.908;2024-01-15T13:42:25;7.97;;;5.30;;
2750;SDS011;1383;48.362;10.908;2024-01-15T13:44:55;6.38;;;4.68;;
2750;SDS011;1383;48.362;10.908;2024-01-15T13:47:22;4.95;;;4.43;;
2750;SDS011;1383;48.362;10.908;2024-01-15T13:49:48;8.75;;;5.05;;
2750;SDS011;1383;48.362;10.908;2024-01-15T13:52:15;7.45;;;4.55;;
2750;SDS011;1383;48.362;10.908;2024-01-15T13:54:42;8.98;;;4.65;;
2750;SDS011;1383;48.362;10.908;2024-01-15T13:57:19;5.55;;;4.10;;
2750;SDS011;1383;48.362;10.908;2024-01-15T13:59:46;6.07;;;4.25;;
2750;SDS011;1383;48.362;10.908;2024-01-15T14:02:15;6.22;;;3.65;;
2750;SDS011;1383;48.362;10.908;2024-01-15T14:04:50;9.13;;;4.82;;
2750;SDS011;1383;48.362;10.908;2024-01-15T14:07:16;8.77;;;5.90;;
2750;SDS011;1383;48.362;10.908;2024-01-15T14:09:44;7.00;;;4.55;;
2750;SDS011;1383;48.362;10.908;2024-01-15T14:12:11;5.13;;;4.63;;
2750;SDS011;1383;48.362;10.908;2024-01-15T14:14:38;5.07;;;4.05;;
2750;SDS011;1383;48.362;10.908;2024-01-15T14:17:06;7.53;;;6.68;;
2750;SDS011;1383;48.362;10.908;2024-01-15T14:19:33;5.03;;;3.50;;
2750;SDS011;1383;48.362;10.908;2024-01-15T14:22:00;4.38;;;3.78;;
2750;SDS011;1383;48.362;10.908;2024-01-15T14:24:27;6.50;;;5.25;;
2750;SDS011;1383;48.362;10.908;2024-01-15T14:26:55;7.22;;;4.50;;
2750;SDS011;1383;48.362;10.908;2024-01-15T14:29:23;5.20;;;4.15;;
2750;SDS011;1383;48.362;10.908;2024-01-15T14:31:52;7.45;;;5.00;;
2750;SDS011;1383;48.362;10.908;2024-01-15T14:34:19;6.03;;;4.55;;
2750;SDS011;1383;48.362;10.908;2024-01-15T14:36:50;6.20;;;5.60;;
2750;SDS011;1383;48.362;10.908;2024-01-15T14:39:17;6.10;;;4.25;;
2750;SDS011;1383;48.362;10.908;2024-01-15T14:41:47;7.15;;;4.75;;
2750;SDS011;1383;48.362;10.908;2024-01-15T14:44:14;7.05;;;4.85;;
2750;SDS011;1383;48.362;10.908;2024-01-15T14:46:41;8.52;;;4.10;;
2750;SDS011;1383;48.362;10.908;2024-01-15T14:49:08;7.65;;;5.07;;
2750;SDS011;1383;48.362;10.908;2024-01-15T14:51:35;9.80;;;6.53;;
2750;SDS011;1383;48.362;10.908;2024-01-15T14:54:02;9.15;;;5.80;;
2750;SDS011;1383;48.362;10.908;2024-01-15T14:56:28;7.30;;;5.25;;
2750;SDS011;1383;48.362;10.908;2024-01-15T14:58:55;6.75;;;4.68;;
2750;SDS011;1383;48.362;10.908;2024-01-15T15:01:22;11.07;;;5.30;;
2750;SDS011;1383;48.362;10.908;2024-01-15T15:03:49;9.32;;;5.45;;